createdAt,value
2022-12-15T00:02:10.936Z,1.30
2022-12-15T00:04:57.466Z,1.30
2022-12-15T00:07:42.963Z,1.30
2022-12-15T00:10:28.437Z,1.30
2022-12-15T00:13:14.093Z,1.30
2022-12-15T00:15:59.660Z,1.30
2022-12-15T00:18:45.041Z,1.30
2022-12-15T00:21:31.773Z,1.30
2022-12-15T00:24:17.200Z,1.20
2022-12-15T00:27:02.731Z,1.30
2022-12-15T00:29:48.227Z,1.30
2022-12-15T00:32:33.593Z,1.30
2022-12-15T00:35:19.212Z,1.30
2022-12-15T00:38:05.791Z,1.30
2022-12-15T00:40:33.721Z,1.30
2022-12-15T00:43:01.643Z,1.30
2022-12-15T00:45:43.534Z,1.30
2022-12-15T00:48:11.400Z,1.30
2022-12-15T00:50:55.851Z,1.30
2022-12-15T00:53:43.145Z,1.30
2022-12-15T00:56:28.904Z,1.30
2022-12-15T00:59:14.716Z,1.30
2022-12-15T01:02:00.247Z,1.30
2022-12-15T01:04:46.363Z,1.30
2022-12-15T01:07:32.006Z,1.30
2022-12-15T01:10:18.790Z,1.20
2022-12-15T01:13:05.230Z,1.20
2022-12-15T01:15:50.478Z,1.20
2022-12-15T01:18:36.019Z,1.20
2022-12-15T01:21:06.151Z,1.20
2022-12-15T01:23:34.587Z,1.20
2022-12-15T01:26:05.466Z,1.20
2022-12-15T01:28:33.489Z,1.20
2022-12-15T01:31:01.525Z,1.30
2022-12-15T01:33:29.846Z,1.30
2022-12-15T01:35:59.150Z,1.30
2022-12-15T01:38:28.384Z,1.20
2022-12-15T01:40:59.056Z,1.20
2022-12-15T01:43:31.970Z,1.20
2022-12-15T01:46:04.903Z,1.30
2022-12-15T01:48:40.449Z,1.20
2022-12-15T01:51:16.945Z,1.20
2022-12-15T01:53:50.155Z,1.20
2022-12-15T01:56:19.203Z,1.20
2022-12-15T01:58:52.061Z,1.20
2022-12-15T02:01:20.069Z,1.20
2022-12-15T02:03:49.082Z,1.20
2022-12-15T02:06:19.023Z,1.20
2022-12-15T02:08:48.589Z,1.20
2022-12-15T02:11:52.404Z,1.30
2022-12-15T02:14:30.008Z,1.30
2022-12-15T02:17:13.691Z,1.30
2022-12-15T02:20:13.004Z,1.30
2022-12-15T02:23:01.341Z,1.20
2022-12-15T02:25:56.051Z,1.30
2022-12-15T02:28:40.380Z,1.20
2022-12-15T02:31:33.318Z,1.20
2022-12-15T02:34:07.012Z,1.20
2022-12-15T02:36:38.120Z,1.30
2022-12-15T02:39:06.390Z,1.30
2022-12-15T02:41:38.429Z,1.20
2022-12-15T02:44:11.891Z,1.20
2022-12-15T02:47:05.092Z,1.20
2022-12-15T02:49:43.868Z,1.20
2022-12-15T02:52:22.409Z,1.20
2022-12-15T02:55:05.251Z,1.20
2022-12-15T02:57:42.884Z,1.20
2022-12-15T03:00:12.951Z,1.20
2022-12-15T03:02:45.933Z,1.20
2022-12-15T03:05:15.250Z,1.20
2022-12-15T03:07:43.717Z,1.20
2022-12-15T03:10:17.322Z,1.20
2022-12-15T03:12:45.180Z,1.20
2022-12-15T03:15:13.137Z,1.20
2022-12-15T03:17:42.361Z,1.20
2022-12-15T03:20:12.057Z,1.20
2022-12-15T03:22:40.255Z,1.20
2022-12-15T03:25:08.823Z,1.20
2022-12-15T03:27:37.826Z,1.20
2022-12-15T03:30:06.988Z,1.20
2022-12-15T03:32:34.978Z,1.20
2022-12-15T03:35:04.225Z,1.20
2022-12-15T03:37:32.127Z,1.20
2022-12-15T03:40:00.048Z,1.20
2022-12-15T03:42:45.682Z,1.20
2022-12-15T03:45:13.576Z,1.20
2022-12-15T03:47:42.347Z,1.20
2022-12-15T03:50:13.473Z,1.20
2022-12-15T03:52:41.391Z,1.20
2022-12-15T03:55:10.592Z,1.20
2022-12-15T03:57:38.789Z,1.30
2022-12-15T04:00:08.394Z,1.30
2022-12-15T04:02:36.359Z,1.30
2022-12-15T04:05:04.262Z,1.20
2022-12-15T04:07:33.718Z,1.20
2022-12-15T04:10:01.609Z,1.30
2022-12-15T04:12:29.581Z,1.30
2022-12-15T04:14:57.526Z,1.20
2022-12-15T04:17:25.389Z,1.30
2022-12-15T04:20:11.175Z,1.20
2022-12-15T04:22:42.885Z,1.30
2022-12-15T04:25:31.117Z,1.20
2022-12-15T04:28:17.712Z,1.20
2022-12-15T04:31:07.705Z,1.20
2022-12-15T04:33:54.923Z,1.20
2022-12-15T04:36:40.909Z,1.20
2022-12-15T04:39:27.568Z,1.20
2022-12-15T04:42:14.040Z,1.20
2022-12-15T04:44:59.565Z,1.20
2022-12-15T04:47:45.080Z,1.20
2022-12-15T04:50:30.506Z,1.20
2022-12-15T04:53:26.528Z,1.20
2022-12-15T04:56:18.176Z,1.10
2022-12-15T04:59:04.321Z,1.10
2022-12-15T05:01:49.845Z,1.10
2022-12-15T05:04:37.733Z,1.20
2022-12-15T05:07:23.176Z,1.20
2022-12-15T05:10:14.646Z,1.10
2022-12-15T05:13:02.334Z,1.10
2022-12-15T05:15:48.290Z,1.10
2022-12-15T05:18:33.654Z,1.10
2022-12-15T05:21:18.990Z,1.20
2022-12-15T05:24:04.419Z,1.10
2022-12-15T05:26:52.955Z,1.20
2022-12-15T05:29:40.309Z,1.10
2022-12-15T05:32:08.983Z,1.20
2022-12-15T05:34:37.602Z,1.10
2022-12-15T05:37:07.004Z,1.20
2022-12-15T05:39:35.448Z,1.20
2022-12-15T05:42:03.613Z,1.20
2022-12-15T05:44:34.094Z,1.10
2022-12-15T05:47:02.089Z,1.20
2022-12-15T05:49:30.047Z,1.20
2022-12-15T05:51:58.169Z,1.20
2022-12-15T05:54:26.015Z,1.20
2022-12-15T05:56:54.187Z,1.20
2022-12-15T05:59:22.204Z,1.20
2022-12-15T06:01:51.637Z,1.20
2022-12-15T06:04:19.695Z,1.20
2022-12-15T06:06:47.621Z,1.20
2022-12-15T06:09:15.567Z,1.20
2022-12-15T06:11:44.716Z,1.20
2022-12-15T06:14:12.611Z,1.10
2022-12-15T06:16:51.203Z,1.20
2022-12-15T06:19:21.155Z,1.20
2022-12-15T06:21:49.157Z,1.20
2022-12-15T06:24:17.058Z,1.20
2022-12-15T06:26:45.129Z,1.20
2022-12-15T06:29:14.037Z,1.10
2022-12-15T06:31:43.044Z,1.20
2022-12-15T06:34:14.006Z,1.20
2022-12-15T06:36:44.008Z,1.20
2022-12-15T06:39:13.854Z,1.20
2022-12-15T06:41:41.898Z,1.20
2022-12-15T06:44:14.191Z,1.20
2022-12-15T06:46:42.758Z,1.20
2022-12-15T06:49:10.875Z,1.20
2022-12-15T06:51:41.396Z,1.20
2022-12-15T06:54:12.188Z,1.20
2022-12-15T06:56:40.539Z,1.20
2022-12-15T06:59:09.237Z,1.10
2022-12-15T07:01:37.420Z,1.20
2022-12-15T07:04:06.091Z,1.20
2022-12-15T07:06:37.477Z,1.20
2022-12-15T07:09:08.423Z,1.20
2022-12-15T07:11:37.721Z,1.20
2022-12-15T07:14:05.955Z,1.20
2022-12-15T07:16:34.424Z,1.20
2022-12-15T07:19:02.506Z,1.10
2022-12-15T07:21:31.003Z,1.20
2022-12-15T07:24:00.007Z,1.20
2022-12-15T07:26:28.878Z,1.10
2022-12-15T07:28:58.105Z,1.10
2022-12-15T07:31:26.059Z,1.20
2022-12-15T07:33:54.809Z,1.20
2022-12-15T07:36:23.075Z,1.10
2022-12-15T07:38:51.843Z,1.10
2022-12-15T07:41:20.883Z,1.10
2022-12-15T07:43:49.281Z,1.10
2022-12-15T07:46:19.140Z,1.20
2022-12-15T07:48:50.030Z,1.20
2022-12-15T07:51:20.557Z,1.20
2022-12-15T07:53:49.877Z,1.20
2022-12-15T07:56:19.127Z,1.30
2022-12-15T07:58:47.045Z,1.30
2022-12-15T08:01:15.815Z,1.30
2022-12-15T08:03:46.001Z,1.30
2022-12-15T08:06:15.606Z,1.30
2022-12-15T08:08:50.324Z,1.30
2022-12-15T08:11:21.792Z,1.40
2022-12-15T08:14:02.664Z,1.40
2022-12-15T08:16:34.403Z,1.50
2022-12-15T08:19:05.251Z,1.50
2022-12-15T08:21:33.199Z,1.50
2022-12-15T08:24:01.906Z,1.60
2022-12-15T08:26:31.418Z,1.60
2022-12-15T08:29:31.865Z,1.60
2022-12-15T08:31:51.966Z,1.70
2022-12-15T08:34:22.162Z,1.70
2022-12-15T08:36:50.345Z,1.70
2022-12-15T08:39:18.273Z,1.70
2022-12-15T08:41:46.414Z,1.70
2022-12-15T08:44:16.769Z,1.80
2022-12-15T08:46:44.806Z,1.80
2022-12-15T08:49:17.948Z,1.70
2022-12-15T08:51:51.671Z,1.80
2022-12-15T08:54:21.224Z,1.80
2022-12-15T08:56:49.402Z,1.80
2022-12-15T08:59:17.759Z,1.80
2022-12-15T09:01:45.816Z,1.80
2022-12-15T09:04:13.844Z,1.80
2022-12-15T09:06:41.801Z,1.80
2022-12-15T09:09:13.619Z,1.80
2022-12-15T09:11:41.906Z,1.90
2022-12-15T09:14:09.850Z,1.90
2022-12-15T09:16:37.916Z,1.90
2022-12-15T09:19:07.235Z,2.00
2022-12-15T09:21:35.232Z,2.00
2022-12-15T09:24:04.467Z,2.00
2022-12-15T09:26:35.572Z,2.10
2022-12-15T09:29:03.708Z,2.10
2022-12-15T09:31:33.513Z,2.10
2022-12-15T09:34:02.160Z,2.20
2022-12-15T09:36:32.553Z,2.30
2022-12-15T09:39:02.582Z,2.40
2022-12-15T09:41:35.472Z,2.50
2022-12-15T09:44:08.247Z,2.70
2022-12-15T09:46:50.189Z,2.90
2022-12-15T09:49:26.220Z,3.00
2022-12-15T09:52:03.512Z,3.20
2022-12-15T09:54:35.526Z,3.20
2022-12-15T09:57:12.063Z,3.20
2022-12-15T09:59:47.056Z,3.20
2022-12-15T10:02:33.799Z,3.20
2022-12-15T10:05:11.874Z,3.20
2022-12-15T10:07:44.195Z,3.20
2022-12-15T10:10:18.916Z,3.20
2022-12-15T10:13:01.160Z,3.10
2022-12-15T10:15:37.011Z,3.10
2022-12-15T10:18:12.247Z,3.00
2022-12-15T10:20:40.690Z,3.00
2022-12-15T10:23:13.819Z,2.90
2022-12-15T10:25:48.565Z,2.90
2022-12-15T10:28:46.761Z,2.80
2022-12-15T10:31:25.783Z,2.80
2022-12-15T10:33:58.769Z,2.80
2022-12-15T10:36:26.702Z,2.80
2022-12-15T10:38:54.984Z,2.80
2022-12-15T10:41:25.816Z,2.80
2022-12-15T10:43:56.220Z,2.70
2022-12-15T10:46:26.350Z,2.70
2022-12-15T10:48:57.777Z,2.70
2022-12-15T10:51:29.843Z,2.70
2022-12-15T10:54:06.800Z,2.60
2022-12-15T10:56:35.760Z,2.70
2022-12-15T10:59:23.163Z,2.60
2022-12-15T11:01:51.884Z,2.60
2022-12-15T11:04:30.664Z,2.70
2022-12-15T11:06:59.792Z,2.70
2022-12-15T11:09:34.252Z,2.70
2022-12-15T11:12:20.550Z,2.70
2022-12-15T11:14:51.743Z,2.70
2022-12-15T11:17:22.202Z,2.70
2022-12-15T11:20:01.867Z,2.70
2022-12-15T11:22:38.657Z,2.70
2022-12-15T11:25:14.427Z,2.70
2022-12-15T11:27:45.973Z,2.70
2022-12-15T11:30:18.116Z,2.80
2022-12-15T11:32:49.209Z,2.90
2022-12-15T11:35:21.006Z,2.90
2022-12-15T11:37:52.871Z,3.00
2022-12-15T11:40:39.142Z,3.00
2022-12-15T11:43:24.429Z,3.10
2022-12-15T11:46:04.334Z,3.10
2022-12-15T11:48:41.762Z,3.10
2022-12-15T11:51:16.157Z,3.20
2022-12-15T11:54:08.416Z,3.20
2022-12-15T11:56:40.921Z,3.20
2022-12-15T11:59:29.928Z,3.20
2022-12-15T12:02:20.968Z,3.30
2022-12-15T12:04:58.827Z,3.30
2022-12-15T12:07:41.932Z,3.30
2022-12-15T12:10:25.201Z,3.20
2022-12-15T12:13:01.213Z,3.30
2022-12-15T12:15:33.640Z,3.20
2022-12-15T12:18:12.103Z,3.20
2022-12-15T12:20:46.466Z,3.20
2022-12-15T12:23:20.638Z,3.30
2022-12-15T12:26:02.766Z,3.30
2022-12-15T12:28:41.312Z,3.30
2022-12-15T12:31:20.306Z,3.40
2022-12-15T12:33:52.420Z,3.40
2022-12-15T12:36:20.299Z,3.50
2022-12-15T12:38:50.800Z,3.50
2022-12-15T12:41:27.020Z,3.50
2022-12-15T12:43:58.102Z,3.50
2022-12-15T12:46:31.013Z,3.60
2022-12-15T12:49:05.324Z,3.60
2022-12-15T12:51:35.362Z,3.70
2022-12-15T12:54:03.583Z,3.70
2022-12-15T12:56:36.733Z,3.80
2022-12-15T12:59:08.719Z,3.90
2022-12-15T13:01:38.478Z,4.00
2022-12-15T13:04:12.326Z,4.10
2022-12-15T13:07:08.899Z,4.30
2022-12-15T13:09:43.682Z,4.40
2022-12-15T13:12:50.843Z,4.40
2022-12-15T13:15:38.274Z,4.40
2022-12-15T13:18:16.284Z,4.30
2022-12-15T13:20:50.539Z,4.30
2022-12-15T13:23:37.470Z,4.10
2022-12-15T13:26:16.075Z,4.00
2022-12-15T13:28:51.328Z,3.90
2022-12-15T13:31:43.740Z,3.80
2022-12-15T13:34:18.902Z,3.80
2022-12-15T13:36:55.928Z,3.80
2022-12-15T13:40:00.834Z,3.70
2022-12-15T13:42:53.087Z,3.70
2022-12-15T13:45:45.371Z,3.70
2022-12-15T13:48:33.717Z,3.60
2022-12-15T13:51:07.425Z,3.60
2022-12-15T13:53:42.600Z,3.60
2022-12-15T13:56:25.320Z,3.60
2022-12-15T13:59:00.301Z,3.50
2022-12-15T14:01:32.597Z,3.50
2022-12-15T14:04:06.967Z,3.40
2022-12-15T14:06:38.415Z,3.40
2022-12-15T14:09:12.442Z,3.40
2022-12-15T14:11:58.348Z,3.40
2022-12-15T14:14:28.738Z,3.30
2022-12-15T14:17:02.727Z,3.40
2022-12-15T14:19:41.286Z,3.30
2022-12-15T14:22:28.491Z,3.30
2022-12-15T14:25:03.647Z,3.30
2022-12-15T14:27:34.238Z,3.30
2022-12-15T14:30:23.843Z,3.30
2022-12-15T14:32:55.376Z,3.20
2022-12-15T14:35:28.718Z,3.20
2022-12-15T14:37:59.420Z,3.20
2022-12-15T14:40:30.261Z,3.20
2022-12-15T14:43:01.233Z,3.10
2022-12-15T14:45:31.891Z,3.10
2022-12-15T14:50:51.217Z,3.10
2022-12-15T14:53:22.144Z,3.10
2022-12-15T14:55:51.624Z,3.10
2022-12-15T14:58:40.744Z,3.00
2022-12-15T15:01:23.999Z,3.00
2022-12-15T15:03:58.918Z,3.00
2022-12-15T15:06:32.564Z,3.00
2022-12-15T15:09:13.732Z,3.00
2022-12-15T15:11:43.816Z,3.00
2022-12-15T15:14:16.478Z,3.00
2022-12-15T15:16:44.920Z,2.90
2022-12-15T15:19:22.523Z,2.90
2022-12-15T15:21:50.508Z,2.90
2022-12-15T15:24:25.700Z,2.90
2022-12-15T15:26:55.344Z,2.90
2022-12-15T15:29:38.484Z,2.90
2022-12-15T15:32:08.673Z,2.90
2022-12-15T15:34:36.530Z,2.90
2022-12-15T15:37:05.882Z,2.90
2022-12-15T15:39:34.031Z,2.80
2022-12-15T15:42:12.803Z,2.80
2022-12-15T15:44:41.234Z,2.80
2022-12-15T15:47:26.292Z,2.80
2022-12-15T15:49:55.705Z,2.80
2022-12-15T15:52:24.035Z,2.80
2022-12-15T15:54:53.951Z,2.80
2022-12-15T15:57:23.456Z,2.80
2022-12-15T15:59:51.361Z,2.80
2022-12-15T16:02:19.475Z,2.70
2022-12-15T16:04:48.006Z,2.70
2022-12-15T16:07:23.015Z,2.80
2022-12-15T16:09:51.430Z,2.80
2022-12-15T16:12:27.629Z,2.80
2022-12-15T16:14:55.858Z,2.80
2022-12-15T16:17:24.425Z,2.80
2022-12-15T16:19:52.397Z,2.70
2022-12-15T16:22:21.743Z,2.80
2022-12-15T16:24:49.963Z,2.80
2022-12-15T16:27:17.944Z,2.70
2022-12-15T16:29:47.225Z,2.80
2022-12-15T16:32:15.501Z,2.80
2022-12-15T16:34:43.435Z,2.80
2022-12-15T16:37:21.639Z,2.80
2022-12-15T16:39:49.804Z,2.80
2022-12-15T16:42:17.740Z,2.80
2022-12-15T16:44:47.012Z,2.80
2022-12-15T16:47:14.950Z,2.80
2022-12-15T16:49:42.876Z,2.80
2022-12-15T16:52:20.060Z,2.80
2022-12-15T16:54:50.110Z,2.80
2022-12-15T16:57:18.387Z,2.70
2022-12-15T16:59:48.200Z,2.80
2022-12-15T17:02:26.941Z,2.70
2022-12-15T17:04:55.856Z,2.70
2022-12-15T17:07:26.155Z,2.70
2022-12-15T17:09:54.094Z,2.70
2022-12-15T17:12:22.102Z,2.70
2022-12-15T17:14:51.516Z,2.60
2022-12-15T17:17:21.311Z,2.70
2022-12-15T17:22:37.939Z,2.60
2022-12-15T17:25:07.009Z,2.60
2022-12-15T17:27:34.872Z,2.60
2022-12-15T17:30:04.712Z,2.60
2022-12-15T17:32:32.626Z,2.60
2022-12-15T17:35:00.482Z,2.60
2022-12-15T17:37:34.926Z,2.50
2022-12-15T17:40:04.270Z,2.50
2022-12-15T17:42:32.279Z,2.50
2022-12-15T17:45:00.387Z,2.50
2022-12-15T17:47:30.498Z,2.50
2022-12-15T17:49:58.526Z,2.50
2022-12-15T17:52:30.192Z,2.50
2022-12-15T17:54:58.755Z,2.50
2022-12-15T17:57:26.844Z,2.50
2022-12-15T17:59:54.978Z,2.50
2022-12-15T18:02:23.035Z,2.40
2022-12-15T18:04:53.308Z,2.40
2022-12-15T18:07:23.347Z,2.40
2022-12-15T18:09:52.041Z,2.40
2022-12-15T18:12:21.380Z,2.40
2022-12-15T18:14:50.189Z,2.40
2022-12-15T18:17:18.107Z,2.40
2022-12-15T18:19:46.515Z,2.40
2022-12-15T18:22:20.376Z,2.40
2022-12-15T18:24:48.438Z,2.40
2022-12-15T18:27:23.229Z,2.50
2022-12-15T18:29:51.382Z,2.40
2022-12-15T18:32:19.810Z,2.40
2022-12-15T18:34:47.703Z,2.50
2022-12-15T18:37:19.586Z,2.50
2022-12-15T18:39:48.182Z,2.40
2022-12-15T18:42:17.702Z,2.40
2022-12-15T18:44:49.571Z,2.40
2022-12-15T18:47:19.626Z,2.50
2022-12-15T18:49:47.816Z,2.50
2022-12-15T18:52:20.343Z,2.50
2022-12-15T18:54:50.414Z,2.50
2022-12-15T18:57:31.660Z,2.50
2022-12-15T19:00:00.902Z,2.50
2022-12-15T19:02:29.207Z,2.50
2022-12-15T19:04:57.174Z,2.50
2022-12-15T19:07:26.546Z,2.50
2022-12-15T19:09:55.153Z,2.50
2022-12-15T19:12:23.290Z,2.50
2022-12-15T19:14:55.010Z,2.50
2022-12-15T19:17:50.392Z,2.50
2022-12-15T19:20:37.779Z,2.60
2022-12-15T19:23:08.084Z,2.50
2022-12-15T19:25:36.780Z,2.50
2022-12-15T19:28:05.079Z,2.60
2022-12-15T19:30:40.268Z,2.60
2022-12-15T19:33:10.768Z,2.50
2022-12-15T19:35:39.458Z,2.50
2022-12-15T19:38:10.071Z,2.60
2022-12-15T19:40:38.632Z,2.60
2022-12-15T19:43:07.240Z,2.60
2022-12-15T19:45:35.342Z,2.50
2022-12-15T19:48:03.432Z,2.50
2022-12-15T19:50:36.032Z,2.60
2022-12-15T19:53:12.698Z,2.60
2022-12-15T19:55:40.711Z,2.60
2022-12-15T19:58:27.895Z,2.60
2022-12-15T20:00:57.252Z,2.70
2022-12-15T20:03:26.072Z,2.70
2022-12-15T20:05:56.767Z,2.70
2022-12-15T20:08:28.291Z,2.70
2022-12-15T20:10:57.751Z,2.60
2022-12-15T20:13:26.351Z,2.60
2022-12-15T20:15:54.815Z,2.60
2022-12-15T20:18:22.831Z,2.60
2022-12-15T20:20:51.149Z,2.60
2022-12-15T20:23:23.636Z,2.60
2022-12-15T20:25:53.870Z,2.60
2022-12-15T20:28:24.426Z,2.60
2022-12-15T20:30:53.377Z,2.60
2022-12-15T20:33:21.986Z,2.60
2022-12-15T20:35:51.698Z,2.60
2022-12-15T20:38:25.787Z,2.60
2022-12-15T20:40:56.153Z,2.60
2022-12-15T20:43:25.404Z,2.60
2022-12-15T20:46:01.733Z,2.60
2022-12-15T20:48:31.018Z,2.60
2022-12-15T20:51:01.919Z,2.60
2022-12-15T20:53:32.796Z,2.60
2022-12-15T20:56:02.708Z,2.60
2022-12-15T20:58:33.426Z,2.60
2022-12-15T21:01:02.142Z,2.60
2022-12-15T21:03:33.932Z,2.60
2022-12-15T21:06:02.161Z,2.50
2022-12-15T21:08:31.632Z,2.50
2022-12-15T21:11:08.205Z,2.50
2022-12-15T21:13:36.483Z,2.50
2022-12-15T21:16:04.413Z,2.60
2022-12-15T21:21:24.921Z,2.50
2022-12-15T21:23:52.808Z,2.50
2022-12-15T21:26:25.447Z,2.50
2022-12-15T21:28:57.875Z,2.50
2022-12-15T21:31:26.530Z,2.50
2022-12-15T21:33:54.876Z,2.50
2022-12-15T21:36:23.208Z,2.50
2022-12-15T21:38:52.849Z,2.50
2022-12-15T21:41:24.593Z,2.60
2022-12-15T21:43:52.731Z,2.50
2022-12-15T21:46:30.864Z,2.50
2022-12-15T21:49:18.099Z,2.50
2022-12-15T21:51:48.352Z,2.50
2022-12-15T21:54:19.083Z,2.50
2022-12-15T21:56:49.603Z,2.50
2022-12-15T21:59:20.826Z,2.50
2022-12-15T22:01:49.256Z,2.50
2022-12-15T22:04:20.180Z,2.50
2022-12-15T22:06:50.647Z,2.40
2022-12-15T22:09:19.498Z,2.40
2022-12-15T22:11:50.960Z,2.40
2022-12-15T22:14:26.175Z,2.40
2022-12-15T22:16:54.392Z,2.40
2022-12-15T22:19:23.099Z,2.40
2022-12-15T22:21:51.167Z,2.40
2022-12-15T22:24:20.831Z,2.40
2022-12-15T22:26:50.328Z,2.40
2022-12-15T22:29:21.491Z,2.40
2022-12-15T22:31:50.625Z,2.40
2022-12-15T22:34:21.450Z,2.40
2022-12-15T22:36:50.090Z,2.40
2022-12-15T22:39:18.919Z,2.40
2022-12-15T22:41:50.360Z,2.30
2022-12-15T22:44:21.679Z,2.30
2022-12-15T22:46:50.551Z,2.30
2022-12-15T22:49:20.599Z,2.30
2022-12-15T22:51:48.879Z,2.40
2022-12-15T22:54:19.929Z,2.40
2022-12-15T22:56:52.103Z,2.30
2022-12-15T22:59:26.976Z,2.30
2022-12-15T23:01:55.542Z,2.30
2022-12-15T23:04:23.931Z,2.30
2022-12-15T23:06:51.884Z,2.30
2022-12-15T23:09:20.078Z,2.30
2022-12-15T23:11:48.439Z,2.30
2022-12-15T23:14:18.533Z,2.30
2022-12-15T23:16:46.355Z,2.20
2022-12-15T23:19:23.738Z,2.20
2022-12-15T23:21:52.047Z,2.20
2022-12-15T23:24:19.952Z,2.20
2022-12-15T23:26:49.272Z,2.20
2022-12-15T23:29:17.573Z,2.10
2022-12-15T23:31:45.538Z,2.20
2022-12-15T23:34:13.641Z,2.10
2022-12-15T23:36:41.590Z,2.10
2022-12-15T23:39:09.574Z,2.20
2022-12-15T23:41:37.486Z,2.10
2022-12-15T23:44:07.270Z,2.10
2022-12-15T23:46:35.239Z,2.10
2022-12-15T23:49:03.167Z,2.10
2022-12-15T23:51:31.067Z,2.00
2022-12-15T23:53:59.668Z,2.00
2022-12-15T23:56:27.565Z,2.00
2022-12-15T23:58:56.890Z,2.00
